Tiempo atmosférico en la estación meteorológica de Antigua, Las Palmas (252 m.)



Fecha
DESCASC
Temp. máxima en grados centígrados (hora)
DESCASC
Temp. mínima en grados centígrados (hora)
DESCASC
Temp. media en grados centígrados
DESCASC
Racha de viento máxima en m/sg (hora)
DESCASC
Velocidad máxima media en intervalos de 10 minutos(hora)
DESCASC
Precipitaciones diarias en mm
DESCASC
Precipitaciones de 00:00 a 06:00 en mm
DESCASC
Precipitaciones de 06:00 a 12:00 en mm
DESCASC
Precipitaciones de 12:00 a 18:00 en mm
DESCASC
Precipitaciones de 18:00 a 24:00 en mm
DESCASC
24-09-2020 31.8 (14:20) 20.9 (05:10) 26.3 12.5 (14:30) 7.5 (09:20) 0 0 0 0 0
23-09-2020 27.7 (13:40) 20.8 (00:00) 24.3 14.17 (21:00) 11.11 (21:20) 0 0 0 0 0
22-09-2020 31 (15:10) 19.6 (00:00) 25.3 11.11 (20:00) 8.33 (20:00) 0 0 0 0 0
21-09-2020 30.8 (15:00) 19.5 (00:00) 25.1 11.94 (04:40) 9.17 (04:50) 0 0 0 0 0
20-09-2020 28.9 (17:10) 16.9 (00:00) 22.9 9.17 (16:10) 6.94 (23:59) 0 0 0 0 0
19-09-2020 25.9 (14:50) 18.2 (00:00) 22.1 10.28 (13:10) 7.22 (16:00) 0 0 0 0 0
18-09-2020 26.3 (14:00) 19.4 (00:00) 22.8 11.67 (18:20) 8.61 (18:20) 0 0 0 0 0
17-09-2020 26.3 (01:50) 20.4 (00:00) 23.3 16.67 (20:20) 12.5 (19:50) 0 0 0 0 0
16-09-2020 31.6 (15:10) 21.1 (00:00) 26.4 13.61 (00:10) 10.56 (00:10) 0 0 0 0 0
15-09-2020 26.8 (16:20) 20.4 (00:00) 23.6 13.06 (23:59) 9.72 (23:50) 0 0 0 0 0
14-09-2020 28.9 (15:20) 18.4 (00:00) 23.6 9.44 (15:50) 6.39 (18:40) 0 0 0 0 0
13-09-2020 26.7 (17:20) 19.1 (00:00) 22.9 7.22 (17:20) 5.28 (20:10) 0 0 0 0 0
12-09-2020 26.3 (16:00) 19.7 (00:00) 23 11.11 (02:40) 7.78 (02:40) 0 0 0 0 0
11-09-2020 25 (14:30) 19.9 (00:00) 22.4 13.33 (03:00) 9.72 (17:30) 0 0 0 0 0
10-09-2020 28.7 (15:00) 19.8 (00:00) 24.3 18.89 (08:20) 15 (08:10) 0 0 0 0 0
09-09-2020 33.7 (14:30) 23.8 (00:00) 28.8 10.56 (13:40) 7.78 (14:50) 0 0 0 0 0
08-09-2020 34.5 (13:30) 23.7 (00:00) 29.1 10.83 (08:10) 7.22 (13:40) 0 0 0 0 0
07-09-2020 33.5 (15:10) 20.9 (04:40) 27.2 9.17 (06:10) 7.5 (06:10) 0 0 0 0 0
06-09-2020 28.5 (15:40) 19.6 (00:00) 24.1 9.44 (08:00) 7.22 (09:40) 0 0 0 0 0
05-09-2020 26.6 (14:00) 18.9 (00:00) 22.8 12.22 (15:20) 9.44 (15:30) 0 0 0 0 0
04-09-2020 26.7 (16:00) 17.5 (00:00) 22.1 10 (23:50) 7.78 (23:50) 0 0 0 0 0
03-09-2020 27.5 (13:40) 19.2 (00:00) 23.4 9.72 (14:30) 7.5 (23:40) 0 0 0 0 0
02-09-2020 28.8 (16:20) 16.5 (00:00) 22.6 8.61 (14:20) 6.11 (14:20) 0 0 0 0 0
01-09-2020 29.8 (16:10) 16.5 (00:00) 23.1 6.67 (12:50) 5 (20:00) 0 0 0 0 0
31-08-2020 24.2 (16:50) 19.5 (00:00) 21.9 12.5 (04:30) 9.72 (04:10) 0 0 0 0 0
30-08-2020 24.9 (14:00) 18.6 (00:00) 21.8 16.39 (17:00) 11.67 (15:40) 0 0 0 0 0
29-08-2020 26.6 (13:30) 19.6 (00:00) 23.1 16.11 (16:20) 11.39 (16:30) 0 0 0 0 0
28-08-2020 32.7 (12:30) 20.5 (00:00) 26.6 16.11 (21:10) 11.94 (21:10) 0 0 0 0 0
27-08-2020 38.4 (14:40) 26.7 (00:00) 32.6 10.83 (17:20) 7.22 (10:50) 0 0 0 0 0
26-08-2020 41.4 (16:10) 26.7 (00:00) 34.1 8.61 (00:30) 6.94 (21:50) 0 0 0 0 0

Gráficas

Temp. máximas Temp. mínimas Temp. medias Precipitaciones Rachas de viento máximas Velocidades máximas media en intervalos de 10 minutos

Datos horarios

Fecha y hora oficial Temperatura (ºC) Velocidad del viento (km/h) Dirección del viento Racha (km/h) Dirección de racha Precipitación (mm) Presión (hPa) Tendencia (hPa) Humedad (%)
2020-09-24 23:00:00 22.6 8 Noroeste 9 Norte 0 -- -- 81
2020-09-24 22:00:00 23.3 7 Norte 13 Noroeste 0 -- -- 78
2020-09-24 21:00:00 24.1 12 Norte 17 Norte 0 -- -- 71
2020-09-24 20:00:00 25.1 12 Norte 16 Norte 0 -- -- 62
2020-09-24 19:00:00 27.1 10 Norte 18 Norte 0 -- -- 57
2020-09-24 18:00:00 28.7 11 Norte 23 Norte 0 -- -- 49
2020-09-24 17:00:00 28.6 14 Norte 33 Noroeste 0 -- -- 53
2020-09-24 16:00:00 30.4 16 Noroeste 36 Norte 0 -- -- 43
2020-09-24 15:00:00 31.5 16 Oeste 45 Oeste 0 -- -- 37
2020-09-24 14:00:00 31.5 10 Norte 34 Sudoeste 0 -- -- 39
2020-09-24 13:00:00 31 21 Sudoeste 39 Sudoeste 0 -- -- 38
2020-09-24 12:00:00 30.1 14 Sudoeste 39 Oeste 0 -- -- 40
2020-09-24 11:00:00 26.3 6 Noroeste 31 Oeste 0 -- -- 61
2020-09-24 10:00:00 25.9 10 Oeste 35 Oeste 0 -- -- 55
2020-09-24 09:00:00 23.4 26 Oeste 33 Oeste 0 -- -- 74
2020-09-24 08:00:00 21.6 4 Oeste 13 Sudeste 0 -- -- 65
2020-09-24 07:00:00 21.6 6 Sur 10 Sudeste 0 -- -- 63
2020-09-24 06:00:00 21.9 4 Sur 8 Sudoeste 0 -- -- 63
2020-09-24 05:00:00 21.2 7 Noroeste 23 Noroeste 0 -- -- 91
2020-09-24 04:00:00 21.4 20 Norte 25 Norte 0 -- -- 90
2020-09-24 03:00:00 22.5 12 Norte 18 Norte 0 -- -- 68
2020-09-24 02:00:00 22.1 3 Oeste 10 Sudoeste 0 -- -- 50
2020-09-24 01:00:00 23.3 6 Sudoeste 11 Este 0 -- -- 53
2020-09-24 00:00:00 24.5 12 Noroeste 39 Noroeste 0 -- -- 48
2020-09-23 23:00:00 22.9 31 Noroeste 49 Noroeste 0 -- -- 64
2020-09-23 22:00:00 22.5 37 Noroeste 51 Noroeste 0 -- -- 78
2020-09-23 21:00:00 22.4 37 Noroeste 51 Noroeste 0 -- -- 84
2020-09-23 20:00:00 23.1 35 Noroeste 49 Noroeste 0 -- -- 69
2020-09-23 19:00:00 23.4 33 Noroeste 44 Noroeste 0 -- -- 73
2020-09-23 18:00:00 25.2 29 Noroeste 44 Oeste 0 -- -- 66
2020-09-23 17:00:00 27.3 27 Noroeste 38 Norte 0 -- -- 52
2020-09-23 16:00:00 27.4 27 Noroeste 41 Noroeste 0 -- -- 49
2020-09-23 15:00:00 26.8 31 Noroeste 44 Noroeste 0 -- -- 59
2020-09-23 14:00:00 27.6 30 Noroeste 44 Noroeste 0 -- -- 50
2020-09-23 13:00:00 27.5 29 Norte 43 Noroeste 0 -- -- 53
2020-09-23 12:00:00 26.1 29 Noroeste 44 Noroeste 0 -- -- 61
2020-09-23 11:00:00 24.5 30 Noroeste 41 Noroeste 0 -- -- 69
2020-09-23 10:00:00 22.9 30 Noroeste 39 Noroeste 0 -- -- 79
2020-09-23 09:00:00 22.2 26 Noroeste 38 Noroeste 0 -- -- 73
2020-09-23 08:00:00 21.1 26 Noroeste 39 Noroeste 0 -- -- 81
2020-09-23 07:00:00 21.7 26 Noroeste 35 Noroeste 0 -- -- 72
2020-09-23 06:00:00 23.4 22 Noroeste 32 Noroeste 0 -- -- 51
2020-09-23 05:00:00 23.1 14 Norte 28 Norte 0 -- -- 51
2020-09-23 04:00:00 22.1 23 Noroeste 34 Noroeste 0 -- -- 65
2020-09-23 03:00:00 22.6 19 Noroeste 28 Noroeste 0 -- -- 56
2020-09-23 02:00:00 20.8 22 Noroeste 35 Noroeste 0 -- -- 86
2020-09-23 01:00:00 21.1 25 Noroeste 38 Noroeste 0 -- -- 89
2020-09-23 00:00:00 21.4 25 Noroeste 35 Noroeste 0 -- -- 88
2020-09-22 23:00:00 21.5 21 Norte 31 Noroeste 0 -- -- 90
2020-09-22 22:00:00 21.7 26 Noroeste 38 Norte 0 -- -- 89
2020-09-22 21:00:00 21.9 30 Noroeste 40 Noroeste 0 -- -- 88
2020-09-22 20:00:00 22.5 30 Norte 40 Noroeste 0 -- -- 86
2020-09-22 19:00:00 24.4 26 Noroeste 36 Noroeste 0 -- -- 76
2020-09-22 18:00:00 28.2 21 Noroeste 29 Norte 0 -- -- 61
2020-09-22 17:00:00 28.3 15 Norte 28 Norte 0 -- -- 59
2020-09-22 16:00:00 29.6 15 Noroeste 35 Nordeste 0 -- -- 54
2020-09-22 15:00:00 30.9 18 Nordeste 27 Este 0 -- -- 30
2020-09-22 14:00:00 29.9 19 Nordeste 30 Nordeste 0 -- -- 34
2020-09-22 13:00:00 29.2 16 Nordeste 28 Nordeste 0 -- -- 37
2020-09-22 12:00:00 28.1 13 Nordeste 19 Nordeste 0 -- -- 43
2020-09-22 11:00:00 26.2 13 Norte 17 Norte 0 -- -- 50
2020-09-22 10:00:00 24.2 2 Este 21 Norte 0 -- -- 56
2020-09-22 09:00:00 21.5 4 Norte 13 Noroeste 0 -- -- 65
2020-09-22 08:00:00 20.5 11 Norte 16 Noroeste 0 -- -- 79
2020-09-22 07:00:00 21 6 Noroeste 14 Nordeste 0 -- -- 56
2020-09-22 06:00:00 20.4 3 Noroeste 9 Norte 0 -- -- 60
2020-09-22 05:00:00 20.1 4 Norte 8 Nordeste 0 -- -- 68
2020-09-22 04:00:00 20.2 0 Calma 10 Norte 0 -- -- 83
2020-09-22 03:00:00 20.8 8 Norte 21 Norte 0 -- -- 84
2020-09-22 02:00:00 21 18 Norte 23 Norte 0 -- -- 86
2020-09-22 01:00:00 21.3 7 Norte 10 Norte 0 -- -- 76
2020-09-22 00:00:00 21.6 7 Noroeste 11 Noroeste 0 -- -- 77
2020-09-21 23:00:00 21.4 6 Noroeste 9 Norte 0 -- -- 80
2020-09-21 22:00:00 22.2 3 Oeste 14 Norte 0 -- -- 79
2020-09-21 21:00:00 23.2 9 Norte 18 Noroeste 0 -- -- 77
2020-09-21 20:00:00 24.4 14 Noroeste 21 Noroeste 0 -- -- 75
2020-09-21 19:00:00 25.5 15 Noroeste 27 Noroeste 0 -- -- 73
2020-09-21 18:00:00 26.3 18 Noroeste 31 Noroeste 0 -- -- 71
2020-09-21 17:00:00 27.7 22 Norte 30 Norte 0 -- -- 65
2020-09-21 16:00:00 27.8 26 Norte 39 Noroeste 0 -- -- 65
2020-09-21 15:00:00 30.8 12 Norte 25 Norte 0 -- -- 51
2020-09-21 14:00:00 29.9 11 Norte 22 Noroeste 0 -- -- 52
2020-09-21 13:00:00 29.1 13 Norte 22 Noroeste 0 -- -- 56
2020-09-21 12:00:00 28.4 13 Norte 21 Norte 0 -- -- 53
2020-09-21 11:00:00 26.7 4 Oeste 20 Norte 0 -- -- 52
2020-09-21 10:00:00 22.9 12 Norte 36 Norte 0 -- -- 80
2020-09-21 09:00:00 20.2 28 Norte 38 Norte 0 -- -- 95
2020-09-21 08:00:00 19.6 27 Norte 36 Norte 0 -- -- 96
2020-09-21 07:00:00 19.5 28 Norte 41 Norte 0 -- -- 95
2020-09-21 06:00:00 19.5 27 Norte 41 Noroeste 0 -- -- 94
2020-09-21 05:00:00 19.7 31 Norte 43 Noroeste 0 -- -- 94
2020-09-21 04:00:00 19.8 24 Noroeste 35 Norte 0 -- -- 93
2020-09-21 03:00:00 19.9 20 Noroeste 26 Norte 0 -- -- 93
2020-09-21 02:00:00 20.1 19 Norte 32 Norte 0 -- -- 92
2020-09-21 01:00:00 20.3 20 Norte 36 Noroeste 0 -- -- 92
2020-09-21 00:00:00 20.6 25 Norte 32 Norte 0 -- -- 91
2020-09-20 23:00:00 21.6 17 Norte 24 Norte 0 -- -- 84
2020-09-20 22:00:00 21.8 13 Norte 27 Norte 0 -- -- 84
2020-09-20 21:00:00 22.4 21 Noroeste 27 Norte 0 -- -- 82
2020-09-20 20:00:00 23.9 16 Norte 28 Noroeste 0 -- -- 75
2020-09-20 19:00:00 25.6 20 Norte 28 Noroeste 0 -- -- 70
2020-09-20 18:00:00 27.3 22 Noroeste 28 Nordeste 0 -- -- 62
2020-09-20 17:00:00 28.8 19 Nordeste 33 Este 0 -- -- 47
2020-09-20 16:00:00 28.6 22 Nordeste 32 Este 0 -- -- 48
2020-09-20 15:00:00 28.7 21 Nordeste 30 Nordeste 0 -- -- 48
2020-09-20 14:00:00 28 19 Nordeste 29 Este 0 -- -- 51
2020-09-20 13:00:00 27 17 Nordeste 28 Nordeste 0 -- -- 50
2020-09-20 12:00:00 25.8 17 Nordeste 27 Nordeste 0 -- -- 54
2020-09-20 11:00:00 24 16 Nordeste 24 Nordeste 0 -- -- 67
2020-09-20 10:00:00 22 12 Nordeste 21 Norte 0 -- -- 78
2020-09-20 09:00:00 20.5 7 Norte 18 Norte 0 -- -- 88
2020-09-20 08:00:00 18.4 8 Norte 17 Nordeste 0 -- -- 91
2020-09-20 07:00:00 17.7 5 Norte 13 Norte 0 -- -- 87
2020-09-20 06:00:00 17.6 8 Norte 11 Norte 0 -- -- 87
2020-09-20 05:00:00 18.2 5 Norte 18 Nordeste 0 -- -- 85
2020-09-20 04:00:00 19.3 9 Norte 27 Nordeste 0 -- -- 87
2020-09-20 03:00:00 19.1 6 Sudoeste 28 Nordeste 0 -- -- 81
2020-09-20 02:00:00 19.7 13 Nordeste 23 Norte 0 -- -- 87
2020-09-20 01:00:00 19.9 12 Norte 22 Nordeste 0 -- -- 88
2020-09-20 00:00:00 20 10 Nordeste 22 Nordeste 0 -- -- 85
2020-09-19 23:00:00 20.2 9 Nordeste 24 Norte 0 -- -- 84
2020-09-19 22:00:00 20.5 17 Nordeste 31 Nordeste 0 -- -- 84
2020-09-19 21:00:00 21.1 17 Nordeste 27 Nordeste 0 -- -- 79
2020-09-19 20:00:00 21.8 12 Norte 29 Nordeste 0 -- -- 73
2020-09-19 19:00:00 22.8 22 Nordeste 32 Nordeste 0 -- -- 69
2020-09-19 18:00:00 24 22 Nordeste 34 Nordeste 0 -- -- 65
2020-09-19 17:00:00 24.4 23 Nordeste 35 Nordeste 0 -- -- 66
2020-09-19 16:00:00 24.9 26 Nordeste 36 Nordeste 0 -- -- 63
2020-09-19 15:00:00 25.3 23 Nordeste 35 Este 0 -- -- 61
2020-09-19 14:00:00 24.8 24 Nordeste 37 Este 0 -- -- 62
2020-09-19 13:00:00 24.9 22 Nordeste 33 Nordeste 0 -- -- 61
2020-09-19 12:00:00 24.2 22 Nordeste 32 Norte 0 -- -- 64
2020-09-19 11:00:00 23 17 Nordeste 32 Nordeste 0 -- -- 69
2020-09-19 10:00:00 21.7 18 Nordeste 28 Nordeste 0 -- -- 76
2020-09-19 09:00:00 20.3 13 Nordeste 26 Nordeste 0 -- -- 84
2020-09-19 08:00:00 19.1 13 Norte 26 Nordeste 0 -- -- 87
2020-09-19 07:00:00 19.2 13 Nordeste 30 Nordeste 0 -- -- 88
2020-09-19 06:00:00 19.2 11 Norte 20 Nordeste 0 -- -- 89
2020-09-19 05:00:00 19 5 Nordeste 17 Nordeste 0 -- -- 87
2020-09-19 04:00:00 19.4 4 Nordeste 29 Nordeste 0 -- -- 83
2020-09-19 03:00:00 19.5 17 Norte 26 Nordeste 0 -- -- 83
2020-09-19 02:00:00 18.6 9 Norte 13 Norte 0 -- -- 79
2020-09-19 01:00:00 19 7 Norte 15 Noroeste 0 -- -- 86
2020-09-19 00:00:00 19.6 10 Norte 17 Noroeste 0 -- -- 86
2020-09-18 23:00:00 20.1 12 Norte 27 Norte 0 -- -- 84
2020-09-18 22:00:00 20.6 19 Norte 27 Noroeste 0 -- -- 83
2020-09-18 21:00:00 21 19 Norte 29 Noroeste 0 -- -- 79
2020-09-18 20:00:00 21.8 23 Norte 33 Norte 0 -- -- 76
2020-09-18 19:00:00 23.3 26 Noroeste 42 Noroeste 0 -- -- 68
2020-09-18 18:00:00 24.9 26 Norte 41 Noroeste 0 -- -- 60
2020-09-18 17:00:00 25.5 30 Norte 40 Noroeste 0 -- -- 59
2020-09-18 16:00:00 25.7 28 Noroeste 41 Noroeste 0 -- -- 59
2020-09-18 15:00:00 25.7 28 Noroeste 38 Norte 0 -- -- 62
2020-09-18 14:00:00 26.3 24 Noroeste 34 Noroeste 0 -- -- 60
2020-09-18 13:00:00 26.1 20 Norte 34 Norte 0 -- -- 57
2020-09-18 12:00:00 25 17 Norte 34 Noroeste 0 -- -- 63
2020-09-18 11:00:00 23.9 17 Norte 28 Norte 0 -- -- 67
2020-09-18 10:00:00 22.5 20 Norte 27 Norte 0 -- -- 75
2020-09-18 09:00:00 20.3 12 Norte 19 Noroeste 0 -- -- 87
2020-09-18 08:00:00 19.6 9 Norte 14 Norte 0 -- -- 89
2020-09-18 07:00:00 19.6 10 Norte 16 Norte 0 -- -- 89
2020-09-18 06:00:00 19.6 9 Norte 19 Norte 0 -- -- 88
2020-09-18 05:00:00 19.5 14 Norte 20 Norte 0 -- -- 89
2020-09-18 04:00:00 19.7 14 Norte 23 Norte 0 -- -- 89
2020-09-18 03:00:00 20.1 15 Norte 30 Norte 0 -- -- 88
2020-09-18 02:00:00 20.2 17 Norte 29 Noroeste 0 -- -- 85
2020-09-18 01:00:00 20.3 18 Norte 33 Norte 0 -- -- 85
2020-09-18 00:00:00 20.4 19 Norte 30 Norte 0 -- -- 85
2020-09-17 23:00:00 20.7 16 Norte 31 Norte 0 -- -- 86
2020-09-17 22:00:00 21 22 Noroeste 45 Noroeste 0 -- -- 87
2020-09-17 21:00:00 21.1 31 Noroeste 60 Noroeste 0 -- -- 86
2020-09-17 20:00:00 21.5 39 Noroeste 60 Noroeste 0 -- -- 85
2020-09-17 19:00:00 22.5 40 Noroeste 60 Noroeste 0 -- -- 78
2020-09-17 18:00:00 24.9 29 Noroeste 50 Noroeste 0 -- -- 68
2020-09-17 17:00:00 25.4 39 Noroeste 56 Noroeste 0 -- -- 65
2020-09-17 16:00:00 24.6 31 Norte 45 Noroeste 0 -- -- 70
2020-09-17 15:00:00 25.5 25 Norte 38 Noroeste 0 -- -- 70
2020-09-17 14:00:00 25.2 25 Norte 35 Norte 0 -- -- 69
2020-09-17 13:00:00 24.5 21 Norte 36 Norte 0 -- -- 72
2020-09-17 12:00:00 23.5 27 Norte 40 Noroeste 0 -- -- 79
2020-09-17 11:00:00 23.8 33 Noroeste 42 Noroeste 0 -- -- 73
2020-09-17 10:00:00 23.6 27 Norte 37 Noroeste 0 -- -- 60
2020-09-17 09:00:00 23.6 22 Norte 33 Noroeste 0 -- -- 54
2020-09-17 08:00:00 22.2 16 Norte 27 Norte 0 -- -- 72
2020-09-17 07:00:00 22.2 7 Norte 23 Norte 0 -- -- 77
2020-09-17 06:00:00 22.9 13 Norte 21 Noroeste 0 -- -- 76
2020-09-17 05:00:00 22.2 12 Norte 24 Noroeste 0 -- -- 86
2020-09-17 04:00:00 22.1 22 Norte 31 Norte 0 -- -- 88
2020-09-17 03:00:00 23.6 15 Norte 20 Norte 0 -- -- 76
2020-09-17 02:00:00 26.2 3 Noroeste 18 Norte 0 -- -- 38
2020-09-17 01:00:00 25.9 8 Norte 14 Norte 0 -- -- 38
2020-09-17 00:00:00 25.6 3 Noroeste 7 Oeste 0 -- -- 39
2020-09-16 23:00:00 26.2 0 Calma 14 Sudeste 0 -- -- 37
2020-09-16 22:00:00 26.9 3 Sudoeste 12 Oeste 0 -- -- 35
2020-09-16 21:00:00 26.6 9 Norte 16 Norte 0 -- -- 32
2020-09-16 20:00:00 27.2 3 Oeste 15 Norte 0 -- -- 31
2020-09-16 19:00:00 28.2 12 Nordeste 27 Nordeste 0 -- -- 29
2020-09-16 18:00:00 29.3 19 Nordeste 26 Nordeste 0 -- -- 29
2020-09-16 17:00:00 30.1 15 Nordeste 27 Este 0 -- -- 28
2020-09-16 16:00:00 30.5 18 Este 30 Nordeste 0 -- -- 27
2020-09-16 15:00:00 31.2 14 Este 27 Nordeste 0 -- -- 25
2020-09-16 14:00:00 29.7 13 Nordeste 22 Este 0 -- -- 25
2020-09-16 13:00:00 29.4 16 Nordeste 28 Norte 0 -- -- 26
2020-09-16 12:00:00 28.8 12 Nordeste 19 Norte 0 -- -- 26
2020-09-16 11:00:00 27.7 15 Noroeste 22 Norte 0 -- -- 34
2020-09-16 10:00:00 25.1 12 Noroeste 28 Noroeste 0 -- -- 46
2020-09-16 09:00:00 22.7 19 Norte 31 Noroeste 0 -- -- 75
2020-09-16 08:00:00 21.2 24 Noroeste 31 Noroeste 0 -- -- 87
2020-09-16 07:00:00 23.3 10 Norte 38 Nordeste 0 -- -- 54
2020-09-16 06:00:00 22.1 13 Norte 31 Nordeste 0 -- -- 70
2020-09-16 05:00:00 22.1 10 Sur 37 Noroeste 0 -- -- 74
2020-09-16 04:00:00 21.9 6 Nordeste 17 Este 0 -- -- 71
2020-09-16 03:00:00 22.4 12 Norte 19 Norte 0 -- -- 67
2020-09-16 02:00:00 21.3 12 Norte 40 Noroeste 0 -- -- 83
2020-09-16 01:00:00 21.2 28 Noroeste 49 Noroeste 0 -- -- 90
2020-09-16 00:00:00 21.4 35 Noroeste 47 Noroeste 0 -- -- 89
2020-09-15 23:00:00 21.7 30 Noroeste 41 Noroeste 0 -- -- 86
2020-09-15 22:00:00 22.8 21 Noroeste 28 Noroeste 0 -- -- 78
2020-09-15 21:00:00 23.9 7 Noroeste 20 Noroeste 0 -- -- 52
2020-09-15 20:00:00 23 10 Nordeste 22 Nordeste 0 -- -- 66
2020-09-15 19:00:00 24.6 11 Este 23 Nordeste 0 -- -- 61
2020-09-15 18:00:00 24.2 13 Nordeste 28 Nordeste 0 -- -- 68
2020-09-15 17:00:00 26.1 13 Nordeste 31 Nordeste 0 -- -- 54
2020-09-15 16:00:00 26.5 21 Nordeste 35 Nordeste 0 -- -- 58
2020-09-15 15:00:00 25.4 21 Nordeste 33 Nordeste 0 -- -- 62
2020-09-15 14:00:00 25 13 Nordeste 30 Nordeste 0 -- -- 55
2020-09-15 13:00:00 25.2 19 Nordeste 29 Nordeste 0 -- -- 56
2020-09-15 12:00:00 25.9 20 Nordeste 32 Nordeste 0 -- -- 54
2020-09-15 11:00:00 24.9 22 Norte 34 Norte 0 -- -- 53
2020-09-15 10:00:00 22 22 Norte 31 Norte 0 -- -- 75
2020-09-15 09:00:00 21.2 7 Norte 25 Nordeste 0 -- -- 84
2020-09-15 08:00:00 20.4 9 Norte 23 Nordeste 0 -- -- 89
2020-09-15 07:00:00 20.5 9 Norte 22 Nordeste 0 -- -- 88
2020-09-15 06:00:00 20.6 10 Nordeste 15 Nordeste 0 -- -- 86
2020-09-15 05:00:00 20.6 2 Sudoeste 17 Nordeste 0 -- -- 82
2020-09-15 04:00:00 20.8 9 Este 28 Este 0 -- -- 77
2020-09-15 03:00:00 21.4 9 Nordeste 33 Nordeste 0 -- -- 76
2020-09-15 02:00:00 21.6 9 Norte 18 Norte 0 -- -- 71
2020-09-15 01:00:00 21.8 13 Este 25 Este 0 -- -- 70
2020-09-15 00:00:00 22.2 13 Norte 32 Nordeste 0 -- -- 63
2020-09-14 23:00:00 21.6 8 Noroeste 17 Norte 0 -- -- 71
2020-09-14 22:00:00 21.7 5 Oeste 13 Noroeste 0 -- -- 77
2020-09-14 21:00:00 22.1 5 Norte 20 Nordeste 0 -- -- 73
2020-09-14 20:00:00 22.9 14 Nordeste 30 Este 0 -- -- 72
2020-09-14 19:00:00 25.4 21 Nordeste 30 Nordeste 0 -- -- 64
2020-09-14 18:00:00 27 18 Nordeste 30 Nordeste 0 -- -- 58
2020-09-14 17:00:00 27.8 19 Nordeste 32 Nordeste 0 -- -- 53
2020-09-14 16:00:00 28.4 23 Nordeste 34 Este 0 -- -- 54
2020-09-14 15:00:00 28.8 20 Nordeste 31 Este 0 -- -- 52
2020-09-14 14:00:00 28.2 16 Nordeste 27 Nordeste 0 -- -- 47
2020-09-14 13:00:00 26.4 14 Nordeste 25 Nordeste 0 -- -- 56
2020-09-14 12:00:00 24.8 12 Nordeste 21 Nordeste 0 -- -- 65
2020-09-14 11:00:00 23.5 11 Nordeste 19 Nordeste 0 -- -- 71
2020-09-14 10:00:00 21.7 6 Norte 12 Norte 0 -- -- 82
2020-09-14 09:00:00 20.1 4 Norte 11 Noroeste 0 -- -- 91
2020-09-14 08:00:00 19 6 Noroeste 8 Noroeste 0 -- -- 91
2020-09-14 07:00:00 19.2 3 Oeste 7 Oeste 0 -- -- 93
2020-09-14 06:00:00 18.7 4 Oeste 6 Oeste 0 -- -- 93
2020-09-14 05:00:00 19.1 0 Calma 6 Sur 0 -- -- 91
2020-09-14 04:00:00 19.4 0 Calma 9 Norte 0 -- -- 90
2020-09-14 03:00:00 20.1 9 Norte 27 Noroeste 0 -- -- 89
2020-09-14 02:00:00 20.4 9 Nordeste 15 Nordeste 0 -- -- 85
2020-09-14 01:00:00 20.5 7 Norte 12 Norte 0 -- -- 84
2020-09-14 00:00:00 20.7 6 Noroeste 13 Norte 0 -- -- 84
2020-09-13 23:00:00 21.3 6 Norte 10 Norte 0 -- -- 83
2020-09-13 22:00:00 21.8 6 Norte 19 Noroeste 0 -- -- 81
2020-09-13 21:00:00 22.6 14 Norte 23 Norte 0 -- -- 79
2020-09-13 20:00:00 23.6 18 Noroeste 24 Noroeste 0 -- -- 68
2020-09-13 19:00:00 25.5 18 Noroeste 25 Noroeste 0 -- -- 63
2020-09-13 18:00:00 26.3 11 Este 26 Este 0 -- -- 63
2020-09-13 17:00:00 26.3 10 Nordeste 21 Este 0 -- -- 63
2020-09-13 16:00:00 26.2 13 Este 24 Este 0 -- -- 64
2020-09-13 15:00:00 25.9 8 Nordeste 17 Este 0 -- -- 66
2020-09-13 14:00:00 24.4 9 Este 14 Sudeste 0 -- -- 70
2020-09-13 13:00:00 23.6 11 Este 22 Este 0 -- -- 73
2020-09-13 12:00:00 23.1 8 Este 17 Sudeste 0 -- -- 74
2020-09-13 11:00:00 22.3 8 Este 14 Sudeste 0 -- -- 79
2020-09-13 10:00:00 21 6 Este 9 Nordeste 0 -- -- 85
2020-09-13 09:00:00 19.9 3 Sudoeste 9 Este 0 -- -- 91
2020-09-13 08:00:00 19.4 4 Nordeste 12 Norte 0 -- -- 91
2020-09-13 07:00:00 19.5 7 Noroeste 14 Oeste 0 -- -- 92
2020-09-13 06:00:00 19.9 3 Oeste 8 Este 0 -- -- 93
2020-09-13 05:00:00 20 0 Calma 8 Este 0 -- -- 92
2020-09-13 04:00:00 20.2 2 Este 13 Sudeste 0 -- -- 91
2020-09-13 03:00:00 20.4 8 Este 13 Este 0 -- -- 90
2020-09-13 02:00:00 20.4 0 Calma 13 Este 0 -- -- 90
2020-09-13 01:00:00 20.8 10 Este 15 Este 0 -- -- 88
2020-09-13 00:00:00 20.8 8 Nordeste 18 Este 0 -- -- 87
2020-09-12 23:00:00 20.9 4 Noroeste 14 Noroeste 0 -- -- 83
2020-09-12 22:00:00 21 9 Norte 20 Noroeste 0 -- -- 83
2020-09-12 21:00:00 21.4 16 Noroeste 26 Noroeste 0 -- -- 83
2020-09-12 20:00:00 22.3 17 Norte 25 Noroeste 0 -- -- 77
2020-09-12 19:00:00 23.7 15 Noroeste 22 Noroeste 0 -- -- 71
2020-09-12 18:00:00 25 13 Norte 22 Norte 0 -- -- 64
2020-09-12 17:00:00 25.8 15 Norte 27 Noroeste 0 -- -- 60
2020-09-12 16:00:00 26.3 18 Noroeste 30 Noroeste 0 -- -- 58
2020-09-12 15:00:00 25.9 18 Noroeste 34 Noroeste 0 -- -- 61
2020-09-12 14:00:00 25.7 23 Noroeste 32 Noroeste 0 -- -- 63
2020-09-12 13:00:00 25.4 22 Noroeste 31 Noroeste 0 -- -- 64
2020-09-12 12:00:00 24.3 19 Norte 32 Noroeste 0 -- -- 69
2020-09-12 11:00:00 22.9 18 Norte 29 Norte 0 -- -- 71
2020-09-12 10:00:00 21.8 12 Noroeste 16 Noroeste 0 -- -- 76
2020-09-12 09:00:00 20.2 3 Noroeste 6 Norte 0 -- -- 84
2020-09-12 08:00:00 19.7 4 Norte 14 Norte 0 -- -- 85
2020-09-12 07:00:00 19.8 9 Norte 18 Norte 0 -- -- 85
2020-09-12 06:00:00 20 13 Norte 24 Noroeste 0 -- -- 88
2020-09-12 05:00:00 20.1 16 Norte 30 Norte 0 -- -- 87
2020-09-12 04:00:00 20.3 17 Norte 32 Norte 0 -- -- 87
2020-09-12 03:00:00 20.3 21 Norte 40 Noroeste 0 -- -- 85
2020-09-12 02:00:00 20.5 19 Norte 35 Norte 0 -- -- 83
2020-09-12 01:00:00 20.7 26 Norte 39 Noroeste 0 -- -- 81
2020-09-12 00:00:00 20.4 20 Norte 30 Norte 0 -- -- 82
2020-09-11 23:00:00 20.5 24 Norte 39 Noroeste 0 -- -- 82
2020-09-11 22:00:00 20.8 25 Noroeste 35 Noroeste 0 -- -- 83
2020-09-11 21:00:00 20.8 24 Noroeste 33 Norte 0 -- -- 81
2020-09-11 20:00:00 21.4 21 Noroeste 40 Noroeste 0 -- -- 80
2020-09-11 19:00:00 22.3 27 Norte 45 Noroeste 0 -- -- 75
2020-09-11 18:00:00 23 32 Noroeste 47 Noroeste 0 -- -- 74
2020-09-11 17:00:00 24.2 33 Norte 44 Noroeste 0 -- -- 67
2020-09-11 16:00:00 24.6 25 Norte 41 Noroeste 0 -- -- 64
2020-09-11 15:00:00 24.5 32 Noroeste 45 Noroeste 0 -- -- 66
2020-09-11 14:00:00 24.3 27 Norte 44 Noroeste 0 -- -- 66
2020-09-11 13:00:00 24.6 26 Noroeste 38 Noroeste 0 -- -- 67
2020-09-11 12:00:00 24.8 27 Norte 38 Noroeste 0 -- -- 65
2020-09-11 11:00:00 23.9 23 Norte 38 Norte 0 -- -- 69
2020-09-11 10:00:00 22.3 28 Norte 42 Noroeste 0 -- -- 75
2020-09-11 09:00:00 21.1 31 Noroeste 42 Noroeste 0 -- -- 79
2020-09-11 08:00:00 20.2 28 Noroeste 40 Noroeste 0 -- -- 85
2020-09-11 07:00:00 20.1 26 Norte 41 Norte 0 -- -- 85
2020-09-11 06:00:00 20 28 Noroeste 39 Norte 0 -- -- 85
2020-09-11 05:00:00 20.1 26 Noroeste 39 Noroeste 0 -- -- 84
2020-09-11 04:00:00 20.3 14 Norte 41 Norte 0 -- -- 83
2020-09-11 03:00:00 20.5 34 Norte 48 Norte 0 -- -- 84
2020-09-11 02:00:00 20.3 27 Norte 39 Noroeste 0 -- -- 84
2020-09-11 01:00:00 20.6 21 Noroeste 39 Noroeste 0 -- -- 84
2020-09-11 00:00:00 20.5 15 Norte 44 Noroeste 0 -- -- 83
2020-09-10 23:00:00 20.7 26 Noroeste 36 Noroeste 0 -- -- 83
2020-09-10 22:00:00 20.4 21 Norte 55 Noroeste 0 -- -- 84
2020-09-10 21:00:00 20.6 42 Noroeste 58 Noroeste 0 -- -- 85
2020-09-10 20:00:00 21.3 31 Noroeste 48 Noroeste 0 -- -- 80
2020-09-10 19:00:00 23.2 29 Noroeste 39 Noroeste 0 -- -- 73
2020-09-10 18:00:00 25.7 28 Norte 38 Noroeste 0 -- -- 65
2020-09-10 17:00:00 26.7 28 Norte 39 Noroeste 0 -- -- 61
2020-09-10 16:00:00 27.8 24 Norte 33 Norte 0 -- -- 58
2020-09-10 15:00:00 28.7 18 Norte 31 Noroeste 0 -- -- 54
2020-09-10 14:00:00 27.7 22 Nordeste 33 Este 0 -- -- 56
2020-09-10 13:00:00 27.4 17 Nordeste 32 Nordeste 0 -- -- 55
2020-09-10 12:00:00 25.7 21 Norte 39 Norte 0 -- -- 62
2020-09-10 11:00:00 23.9 29 Norte 50 Noroeste 0 -- -- 69
2020-09-10 10:00:00 22.3 36 Noroeste 64 Noroeste 0 -- -- 77
2020-09-10 09:00:00 20.7 54 Noroeste 68 Noroeste 0 -- -- 84
2020-09-10 08:00:00 20 50 Noroeste 62 Norte 0 -- -- 88
2020-09-10 07:00:00 20 36 Noroeste 51 Noroeste 0 -- -- 89
2020-09-10 06:00:00 19.8 29 Noroeste 45 Noroeste 0 -- -- 91
2020-09-10 05:00:00 19.9 33 Noroeste 47 Noroeste 0 -- -- 92
2020-09-10 04:00:00 20.1 28 Norte 42 Noroeste 0 -- -- 92
2020-09-10 03:00:00 20.3 31 Noroeste 39 Norte 0 -- -- 91
2020-09-10 02:00:00 20.7 26 Norte 35 Noroeste 0 -- -- 88
2020-09-10 01:00:00 22.1 19 Noroeste 26 Noroeste 0 -- -- 72
2020-09-10 00:00:00 24 5 Oeste 23 Nordeste 0 -- -- 43
2020-09-09 23:00:00 25 16 Norte 24 Nordeste 0 -- -- 45
2020-09-09 22:00:00 25.5 12 Nordeste 19 Nordeste 0 -- -- 48
2020-09-09 21:00:00 25.8 6 Oeste 16 Este 0 -- -- 60
2020-09-09 20:00:00 27 13 Nordeste 27 Nordeste 0 -- -- 47
2020-09-09 19:00:00 29 21 Nordeste 33 Nordeste 0 -- -- 38
2020-09-09 18:00:00 30.9 25 Nordeste 35 Nordeste 0 -- -- 33
2020-09-09 17:00:00 31.9 23 Nordeste 36 Este 0 -- -- 32
2020-09-09 16:00:00 32.5 23 Nordeste 36 Este 0 -- -- 33
2020-09-09 15:00:00 32.9 25 Este 37 Nordeste 0 -- -- 34
2020-09-09 14:00:00 32.4 21 Norte 38 Noroeste 0 -- -- 41
2020-09-09 13:00:00 31.7 24 Norte 35 Norte 0 -- -- 45
2020-09-09 12:00:00 31.1 15 Norte 37 Nordeste 0 -- -- 44
2020-09-09 11:00:00 31.6 20 Nordeste 30 Este 0 -- -- 30
2020-09-09 10:00:00 30.7 11 Este 24 Este 0 -- -- 30
2020-09-09 09:00:00 28.2 7 Este 18 Norte 0 -- -- 33
2020-09-09 08:00:00 23.8 6 Noroeste 24 Nordeste 0 -- -- 54
2020-09-09 07:00:00 25.5 8 Norte 16 Norte 0 -- -- 40
2020-09-09 06:00:00 26.7 8 Noroeste 18 Norte 0 -- -- 34
2020-09-09 05:00:00 27.1 9 Sudeste 21 Este 0 -- -- 35
2020-09-09 04:00:00 27.1 9 Sudeste 18 Este 0 -- -- 33
2020-09-09 03:00:00 27.7 5 Nordeste 27 Norte 0 -- -- 32
2020-09-09 02:00:00 27.9 6 Norte 20 Nordeste 0 -- -- 32
2020-09-09 01:00:00 27.7 15 Este 27 Este 0 -- -- 36
2020-09-09 00:00:00 27.9 12 Este 24 Nordeste 0 -- -- 37
2020-09-08 23:00:00 27.6 9 Nordeste 16 Nordeste 0 -- -- 36
2020-09-08 22:00:00 27.2 11 Nordeste 22 Nordeste 0 -- -- 49
2020-09-08 21:00:00 27.4 9 Nordeste 17 Norte 0 -- -- 60
2020-09-08 20:00:00 28.9 10 Norte 21 Nordeste 0 -- -- 58
2020-09-08 19:00:00 30.9 15 Nordeste 23 Nordeste 0 -- -- 47
2020-09-08 18:00:00 32.2 15 Nordeste 29 Nordeste 0 -- -- 45
2020-09-08 17:00:00 32.6 19 Nordeste 33 Norte 0 -- -- 43
2020-09-08 16:00:00 33.9 23 Nordeste 33 Nordeste 0 -- -- 35
2020-09-08 15:00:00 34.2 24 Nordeste 35 Nordeste 0 -- -- 31
2020-09-08 14:00:00 34.3 23 Nordeste 37 Nordeste 0 -- -- 28
2020-09-08 13:00:00 34.2 23 Nordeste 35 Nordeste 0 -- -- 26
2020-09-08 12:00:00 33.2 21 Nordeste 35 Nordeste 0 -- -- 25
2020-09-08 11:00:00 32 15 Nordeste 24 Norte 0 -- -- 29
2020-09-08 10:00:00 29.8 4 Nordeste 18 Nordeste 0 -- -- 35
2020-09-08 09:00:00 27.8 7 Este 39 Noroeste 0 -- -- 38
2020-09-08 08:00:00 26.5 11 Este 35 Norte 0 -- -- 40
2020-09-08 07:00:00 26 12 Norte 29 Norte 0 -- -- 40
2020-09-08 06:00:00 24 19 Nordeste 33 Este 0 -- -- 56
2020-09-08 05:00:00 25.2 19 Nordeste 33 Nordeste 0 -- -- 44
2020-09-08 04:00:00 26.1 16 Norte 26 Norte 0 -- -- 41
2020-09-08 03:00:00 27.6 3 Nordeste 9 Nordeste 0 -- -- 36
2020-09-08 02:00:00 28.3 5 Noroeste 30 Nordeste 0 -- -- 33
2020-09-08 01:00:00 28.2 13 Nordeste 26 Nordeste 0 -- -- 31
2020-09-08 00:00:00 28.2 4 Oeste 10 Oeste 0 -- -- 31
2020-09-07 23:00:00 28.6 5 Norte 14 Norte 0 -- -- 29
2020-09-07 22:00:00 28.8 5 Este 13 Nordeste 0 -- -- 28
2020-09-07 21:00:00 28.2 4 Norte 10 Nordeste 0 -- -- 39
2020-09-07 20:00:00 29.1 8 Norte 24 Nordeste 0 -- -- 52
2020-09-07 19:00:00 30.9 17 Nordeste 26 Nordeste 0 -- -- 40
2020-09-07 18:00:00 32.4 18 Nordeste 29 Nordeste 0 -- -- 38
2020-09-07 17:00:00 32.8 18 Nordeste 32 Nordeste 0 -- -- 36
2020-09-07 16:00:00 32.7 18 Nordeste 32 Nordeste 0 -- -- 42
2020-09-07 15:00:00 33.4 13 Norte 24 Norte 0 -- -- 40
2020-09-07 14:00:00 31.7 8 Nordeste 23 Este 0 -- -- 52
2020-09-07 13:00:00 29.8 8 Norte 24 Norte 0 -- -- 54
2020-09-07 12:00:00 27.7 18 Norte 26 Norte 0 -- -- 61
2020-09-07 11:00:00 26.4 12 Norte 20 Norte 0 -- -- 65
2020-09-07 10:00:00 25.2 16 Norte 22 Norte 0 -- -- 68
2020-09-07 09:00:00 23 4 Noroeste 15 Este 0 -- -- 63
2020-09-07 08:00:00 22.9 5 Norte 19 Noroeste 0 -- -- 57
2020-09-07 07:00:00 22.9 15 Noroeste 33 Norte 0 -- -- 55
2020-09-07 06:00:00 22.5 19 Noroeste 31 Norte 0 -- -- 54
2020-09-07 05:00:00 21.2 0 Calma 6 Noroeste 0 -- -- 59
2020-09-07 04:00:00 21.7 0 Calma 12 Sudeste 0 -- -- 59
2020-09-07 03:00:00 22.3 9 Nordeste 23 Nordeste 0 -- -- 62
2020-09-07 02:00:00 21.7 10 Noroeste 17 Noroeste 0 -- -- 78
2020-09-07 01:00:00 21.4 8 Norte 15 Norte 0 -- -- 86
2020-09-07 00:00:00 21.3 7 Noroeste 12 Norte 0 -- -- 89
2020-09-06 23:00:00 21.6 6 Este 15 Este 0 -- -- 87
2020-09-06 22:00:00 22.2 0 Calma 11 Este 0 -- -- 83
2020-09-06 21:00:00 22.9 7 Este 15 Este 0 -- -- 79
2020-09-06 20:00:00 24.5 12 Nordeste 19 Nordeste 0 -- -- 72
2020-09-06 19:00:00 25.8 12 Norte 21 Noroeste 0 -- -- 68
2020-09-06 18:00:00 27.2 12 Este 23 Este 0 -- -- 63
2020-09-06 17:00:00 28.2 12 Norte 27 Noroeste 0 -- -- 59
2020-09-06 16:00:00 28.3 15 Norte 26 Noroeste 0 -- -- 60
2020-09-06 15:00:00 27.7 16 Norte 28 Norte 0 -- -- 61
2020-09-06 14:00:00 27 18 Norte 30 Noroeste 0 -- -- 62
2020-09-06 13:00:00 26.9 15 Norte 24 Norte 0 -- -- 63
2020-09-06 12:00:00 25.5 17 Norte 28 Norte 0 -- -- 66
2020-09-06 11:00:00 23.6 22 Norte 32 Norte 0 -- -- 75
2020-09-06 10:00:00 22.1 24 Noroeste 33 Noroeste 0 -- -- 81
2020-09-06 09:00:00 21 22 Noroeste 32 Noroeste 0 -- -- 85
2020-09-06 08:00:00 20.1 25 Noroeste 34 Noroeste 0 -- -- 87
2020-09-06 07:00:00 19.8 25 Norte 32 Norte 0 -- -- 88
2020-09-06 06:00:00 19.7 24 Norte 32 Noroeste 0 -- -- 88
2020-09-06 05:00:00 19.9 20 Noroeste 27 Noroeste 0 -- -- 87
2020-09-06 04:00:00 20.2 13 Noroeste 20 Noroeste 0 -- -- 86
2020-09-06 03:00:00 20.5 9 Norte 13 Norte 0 -- -- 86
2020-09-06 02:00:00 20.5 10 Norte 15 Norte 0 -- -- 88
2020-09-06 01:00:00 20.4 11 Noroeste 20 Norte 0 -- -- 87
2020-09-06 00:00:00 20.5 14 Norte 22 Norte 0 -- -- 88
2020-09-05 23:00:00 20.6 12 Norte 22 Noroeste 0 -- -- 87
2020-09-05 22:00:00 20.8 19 Noroeste 29 Noroeste 0 -- -- 86
2020-09-05 21:00:00 21.3 17 Noroeste 33 Noroeste 0 -- -- 83
2020-09-05 20:00:00 22.4 26 Noroeste 35 Noroeste 0 -- -- 78
2020-09-05 19:00:00 25.2 21 Norte 31 Norte 0 -- -- 63
2020-09-05 18:00:00 25.2 22 Norte 36 Norte 0 -- -- 65
2020-09-05 17:00:00 25.7 25 Norte 42 Norte 0 -- -- 63
2020-09-05 16:00:00 25.9 32 Noroeste 44 Norte 0 -- -- 61
2020-09-05 15:00:00 26.3 30 Norte 39 Noroeste 0 -- -- 60
2020-09-05 14:00:00 26.6 26 Norte 38 Norte 0 -- -- 59
2020-09-05 13:00:00 26 26 Norte 36 Norte 0 -- -- 62
2020-09-05 12:00:00 25.3 15 Norte 22 Norte 0 -- -- 63
2020-09-05 11:00:00 23.7 10 Norte 19 Norte 0 -- -- 68
2020-09-05 10:00:00 21.9 13 Norte 22 Norte 0 -- -- 78
2020-09-05 09:00:00 20.4 17 Norte 24 Noroeste 0 -- -- 85
2020-09-05 08:00:00 19 13 Noroeste 25 Norte 0 -- -- 90
2020-09-05 07:00:00 19 18 Noroeste 25 Noroeste 0 -- -- 89
2020-09-05 06:00:00 19.2 22 Noroeste 31 Norte 0 -- -- 89
2020-09-05 05:00:00 19.1 20 Noroeste 27 Norte 0 -- -- 88
2020-09-05 04:00:00 19.2 15 Norte 33 Noroeste 0 -- -- 89
2020-09-05 03:00:00 19.4 23 Noroeste 35 Noroeste 0 -- -- 89
2020-09-05 02:00:00 19.8 25 Noroeste 33 Noroeste 0 -- -- 88
2020-09-05 01:00:00 20.1 21 Norte 35 Noroeste 0 -- -- 88
2020-09-05 00:00:00 20 27 Noroeste 36 Noroeste 0 -- -- 89
2020-09-04 23:00:00 20.3 18 Noroeste 27 Norte 0 -- -- 87
2020-09-04 22:00:00 20.9 22 Norte 32 Norte 0 -- -- 82
2020-09-04 21:00:00 21.4 23 Norte 31 Norte 0 -- -- 81
2020-09-04 20:00:00 23.8 20 Norte 26 Norte 0 -- -- 69
2020-09-04 19:00:00 25.4 14 Norte 26 Norte 0 -- -- 63
2020-09-04 18:00:00 25.8 21 Norte 32 Norte 0 -- -- 62
2020-09-04 17:00:00 26.1 23 Norte 32 Norte 0 -- -- 61
2020-09-04 16:00:00 26.7 18 Norte 32 Noroeste 0 -- -- 58
2020-09-04 15:00:00 26.4 24 Norte 32 Noroeste 0 -- -- 60
2020-09-04 14:00:00 26.4 21 Noroeste 30 Norte 0 -- -- 59
2020-09-04 13:00:00 25.6 16 Norte 27 Noroeste 0 -- -- 60
2020-09-04 12:00:00 24.3 19 Noroeste 31 Norte 0 -- -- 66
2020-09-04 11:00:00 23.4 20 Norte 32 Norte 0 -- -- 69
2020-09-04 10:00:00 21.7 21 Norte 34 Noroeste 0 -- -- 77
2020-09-04 09:00:00 20.6 20 Norte 27 Norte 0 -- -- 83
2020-09-04 08:00:00 19 10 Noroeste 22 Noroeste 0 -- -- 90
2020-09-04 07:00:00 18.6 13 Noroeste 23 Noroeste 0 -- -- 90
2020-09-04 06:00:00 18.9 19 Noroeste 27 Noroeste 0 -- -- 90
2020-09-04 05:00:00 17.7 5 Noroeste 9 Noroeste 0 -- -- 89
2020-09-04 04:00:00 18.4 5 Noroeste 11 Noroeste 0 -- -- 90
2020-09-04 03:00:00 19 9 Norte 14 Norte 0 -- -- 88
2020-09-04 02:00:00 19.5 10 Norte 32 Noroeste 0 -- -- 86
2020-09-04 01:00:00 19.7 12 Norte 24 Norte 0 -- -- 87
2020-09-04 00:00:00 20.2 22 Norte 34 Norte 0 -- -- 85
2020-09-03 23:00:00 20.6 19 Norte 25 Norte 0 -- -- 82
2020-09-03 22:00:00 20.8 9 Nordeste 16 Nordeste 0 -- -- 80
2020-09-03 21:00:00 21.4 12 Nordeste 18 Nordeste 0 -- -- 76
2020-09-03 20:00:00 22.8 11 Nordeste 22 Este 0 -- -- 71
2020-09-03 19:00:00 25 11 Nordeste 22 Nordeste 0 -- -- 63
2020-09-03 18:00:00 25.9 15 Nordeste 24 Nordeste 0 -- -- 61
2020-09-03 17:00:00 26.9 14 Nordeste 25 Nordeste 0 -- -- 57
2020-09-03 16:00:00 27 17 Nordeste 30 Nordeste 0 -- -- 58
2020-09-03 15:00:00 27.4 14 Nordeste 35 Este 0 -- -- 56
2020-09-03 14:00:00 26.9 17 Este 29 Este 0 -- -- 58
2020-09-03 13:00:00 26.3 14 Nordeste 28 Nordeste 0 -- -- 59
2020-09-03 12:00:00 24.5 12 Nordeste 21 Este 0 -- -- 65
2020-09-03 11:00:00 23.1 15 Nordeste 22 Nordeste 0 -- -- 72
2020-09-03 10:00:00 21.8 12 Nordeste 21 Este 0 -- -- 77
2020-09-03 09:00:00 20.7 12 Nordeste 18 Nordeste 0 -- -- 83
2020-09-03 08:00:00 19.6 10 Nordeste 17 Nordeste 0 -- -- 88
2020-09-03 07:00:00 19.2 6 Norte 20 Norte 0 -- -- 89
2020-09-03 06:00:00 19.7 12 Nordeste 21 Nordeste 0 -- -- 90
2020-09-03 05:00:00 19.9 12 Nordeste 21 Nordeste 0 -- -- 89
2020-09-03 04:00:00 19.9 8 Norte 21 Nordeste 0 -- -- 87
2020-09-03 03:00:00 20 8 Nordeste 17 Nordeste 0 -- -- 89
2020-09-03 02:00:00 20.1 10 Norte 19 Nordeste 0 -- -- 87
2020-09-03 01:00:00 20.4 5 Norte 12 Nordeste 0 -- -- 82
2020-09-03 00:00:00 20.3 8 Este 18 Nordeste 0 -- -- 85
2020-09-02 23:00:00 20.8 6 Noroeste 14 Norte 0 -- -- 81
2020-09-02 22:00:00 21.2 4 Sudoeste 16 Nordeste 0 -- -- 74
2020-09-02 21:00:00 21.8 10 Nordeste 21 Nordeste 0 -- -- 65
2020-09-02 20:00:00 23.9 14 Nordeste 26 Nordeste 0 -- -- 50
2020-09-02 19:00:00 26 19 Nordeste 28 Este 0 -- -- 48
2020-09-02 18:00:00 27.4 18 Nordeste 27 Nordeste 0 -- -- 42
2020-09-02 17:00:00 28.3 18 Nordeste 29 Nordeste 0 -- -- 37
2020-09-02 16:00:00 28.5 14 Este 27 Este 0 -- -- 34
2020-09-02 15:00:00 28.3 19 Este 31 Este 0 -- -- 34
2020-09-02 14:00:00 28.2 18 Este 30 Nordeste 0 -- -- 41
2020-09-02 13:00:00 27.7 14 Nordeste 22 Nordeste 0 -- -- 50
2020-09-02 12:00:00 26.1 16 Nordeste 22 Nordeste 0 -- -- 57
2020-09-02 11:00:00 23.5 6 Nordeste 13 Este 0 -- -- 76
2020-09-02 10:00:00 21.6 7 Norte 15 Noroeste 0 -- -- 86
2020-09-02 09:00:00 20 11 Norte 21 Noroeste 0 -- -- 95
2020-09-02 08:00:00 18.9 16 Norte 21 Noroeste 0 -- -- 95
2020-09-02 07:00:00 18.3 13 Norte 19 Norte 0 -- -- 95
2020-09-02 06:00:00 16.7 6 Noroeste 11 Norte 0 -- -- 94
2020-09-02 05:00:00 17.1 8 Noroeste 10 Noroeste 0 -- -- 95
2020-09-02 04:00:00 16.7 6 Noroeste 9 Noroeste 0 -- -- 93
2020-09-02 03:00:00 17.6 6 Noroeste 8 Noroeste 0 -- -- 93
2020-09-02 02:00:00 18.5 3 Oeste 7 Noroeste 0 -- -- 92
2020-09-02 01:00:00 18.9 4 Noroeste 9 Oeste 0 -- -- 90
2020-09-02 00:00:00 19.5 3 Noroeste 8 Nordeste 0 -- -- 87
2020-09-01 23:00:00 20.6 6 Nordeste 14 Norte 0 -- -- 88
2020-09-01 22:00:00 21.3 10 Norte 19 Norte 0 -- -- 88
2020-09-01 21:00:00 22 11 Norte 23 Norte 0 -- -- 85
2020-09-01 20:00:00 22.9 18 Norte 23 Norte 0 -- -- 80
2020-09-01 19:00:00 25.6 15 Norte 23 Noroeste 0 -- -- 68
2020-09-01 18:00:00 27.7 12 Norte 23 Norte 0 -- -- 61
2020-09-01 17:00:00 28.5 17 Norte 24 Noroeste 0 -- -- 59
2020-09-01 16:00:00 29.6 10 Este 21 Este 0 -- -- 54
2020-09-01 15:00:00 28.9 8 Este 22 Este 0 -- -- 56
2020-09-01 14:00:00 28.1 10 Este 23 Este 0 -- -- 57
2020-09-01 13:00:00 26.8 13 Sudeste 24 Este 0 -- -- 61
2020-09-01 12:00:00 25.5 6 Nordeste 14 Nordeste 0 -- -- 63
2020-09-01 11:00:00 23.6 4 Noroeste 11 Norte 0 -- -- 72
2020-09-01 10:00:00 21.8 9 Norte 17 Norte 0 -- -- 80
2020-09-01 09:00:00 20.1 12 Norte 18 Noroeste 0 -- -- 90
2020-09-01 08:00:00 17.7 4 Noroeste 15 Noroeste 0 -- -- 92
2020-09-01 07:00:00 17.1 6 Noroeste 9 Noroeste 0 -- -- 92
2020-09-01 06:00:00 16.6 4 Noroeste 6 Norte 0 -- -- 90
2020-09-01 05:00:00 17.8 3 Sudoeste 5 Sudoeste 0 -- -- 87
2020-09-01 04:00:00 18.3 0 Calma 7 Norte 0 -- -- 87
2020-09-01 03:00:00 19.6 6 Noroeste 11 Norte 0 -- -- 85
2020-09-01 02:00:00 21.1 7 Norte 12 Norte 0 -- -- 84
2020-09-01 01:00:00 20.9 9 Norte 19 Norte 0 -- -- 86
2020-09-01 00:00:00 21 13 Norte 20 Norte 0 -- -- 87
2020-08-31 23:00:00 20.9 14 Norte 26 Norte 0 -- -- 88
2020-08-31 22:00:00 21.1 20 Norte 28 Norte 0 -- -- 86
2020-08-31 21:00:00 21.1 21 Norte 36 Norte 0 -- -- 86
2020-08-31 20:00:00 21.5 25 Noroeste 37 Noroeste 0 -- -- 83
2020-08-31 19:00:00 22.7 26 Noroeste 40 Noroeste 0 -- -- 76
2020-08-31 18:00:00 23.7 28 Noroeste 41 Noroeste 0 -- -- 72
2020-08-31 17:00:00 24.2 31 Noroeste 43 Noroeste 0 -- -- 70
2020-08-31 16:00:00 23.9 30 Noroeste 44 Noroeste 0 -- -- 70
2020-08-31 15:00:00 23.8 30 Norte 43 Noroeste 0 -- -- 71
2020-08-31 14:00:00 23.2 30 Norte 44 Noroeste 0 -- -- 73
2020-08-31 13:00:00 22.5 30 Norte 43 Norte 0 -- -- 76
2020-08-31 12:00:00 22 30 Norte 42 Norte 0 -- -- 78
2020-08-31 11:00:00 21.4 29 Norte 39 Norte 0 -- -- 79
2020-08-31 10:00:00 20.9 27 Norte 36 Norte 0 -- -- 82
2020-08-31 09:00:00 20.3 26 Norte 40 Norte 0 -- -- 84
2020-08-31 08:00:00 19.8 22 Norte 38 Norte 0 -- -- 88
2020-08-31 07:00:00 19.6 23 Norte 40 Noroeste 0 -- -- 88
2020-08-31 06:00:00 19.5 28 Noroeste 42 Noroeste 0 -- -- 88
2020-08-31 05:00:00 19.6 31 Noroeste 45 Noroeste 0 -- -- 89
2020-08-31 04:00:00 19.6 31 Noroeste 44 Norte 0 -- -- 89
2020-08-31 03:00:00 19.6 28 Noroeste 42 Norte 0 -- -- 89
2020-08-31 02:00:00 19.6 30 Noroeste 41 Noroeste 0 -- -- 88
2020-08-31 01:00:00 19.7 30 Norte 44 Norte 0 -- -- 88
2020-08-31 00:00:00 19.9 31 Norte 47 Norte 0 -- -- 86
2020-08-30 23:00:00 20 31 Norte 44 Norte 0 -- -- 84
2020-08-30 22:00:00 20.2 33 Norte 50 Noroeste 0 -- -- 82
2020-08-30 21:00:00 20.4 32 Norte 49 Noroeste 0 -- -- 79
2020-08-30 20:00:00 20.8 37 Noroeste 52 Noroeste 0 -- -- 74
2020-08-30 19:00:00 21.8 38 Noroeste 52 Noroeste 0 -- -- 70
2020-08-30 18:00:00 22.7 38 Norte 56 Noroeste 0 -- -- 63
2020-08-30 17:00:00 23.4 40 Noroeste 59 Noroeste 0 -- -- 62
2020-08-30 16:00:00 24.1 41 Noroeste 57 Noroeste 0 -- -- 58
2020-08-30 15:00:00 24.6 35 Norte 53 Norte 0 -- -- 56
2020-08-30 14:00:00 24.9 35 Norte 51 Noroeste 0 -- -- 54
2020-08-30 13:00:00 24.4 34 Norte 52 Norte 0 -- -- 53
2020-08-30 12:00:00 23.7 37 Norte 52 Norte 0 -- -- 55
2020-08-30 11:00:00 22.9 35 Norte 51 Norte 0 -- -- 60
2020-08-30 10:00:00 21.5 33 Norte 50 Norte 0 -- -- 68
2020-08-30 09:00:00 20.4 28 Norte 40 Norte 0 -- -- 71
2020-08-30 08:00:00 19.3 24 Norte 35 Norte 0 -- -- 76
2020-08-30 07:00:00 18.7 19 Norte 40 Norte 0 -- -- 79
2020-08-30 06:00:00 19 25 Norte 41 Norte 0 -- -- 77
2020-08-30 05:00:00 19.3 27 Norte 40 Norte 0 -- -- 76
2020-08-30 04:00:00 19.4 18 Norte 38 Norte 0 -- -- 78
2020-08-30 03:00:00 19.6 29 Norte 46 Norte 0 -- -- 75
2020-08-30 02:00:00 20.3 32 Norte 48 Norte 0 -- -- 76
2020-08-30 01:00:00 20.6 28 Norte 47 Noroeste 0 -- -- 81
2020-08-30 00:00:00 20.3 32 Norte 43 Norte 0 -- -- 83
2020-08-29 23:00:00 20.2 30 Norte 51 Norte 0 -- -- 79
2020-08-29 22:00:00 20.6 31 Norte 45 Norte 0 -- -- 79
2020-08-29 21:00:00 20.8 29 Norte 46 Norte 0 -- -- 78
2020-08-29 20:00:00 21.5 33 Norte 50 Norte 0 -- -- 70
2020-08-29 19:00:00 22.5 33 Norte 53 Norte 0 -- -- 71
2020-08-29 18:00:00 23.3 38 Norte 51 Norte 0 -- -- 67
2020-08-29 17:00:00 23.6 38 Norte 58 Norte 0 -- -- 71
2020-08-29 16:00:00 25.1 34 Norte 50 Norte 0 -- -- 70
2020-08-29 15:00:00 25.6 33 Noroeste 48 Noroeste 0 -- -- 74
2020-08-29 14:00:00 25.5 34 Norte 49 Norte 0 -- -- 72
2020-08-29 13:00:00 26.2 32 Norte 52 Norte 0 -- -- 65
2020-08-29 12:00:00 25.3 35 Norte 50 Norte 0 -- -- 67
2020-08-29 11:00:00 23.6 34 Norte 46 Norte 0 -- -- 69
2020-08-29 10:00:00 22.5 28 Norte 44 Norte 0 -- -- 73
2020-08-29 09:00:00 21.6 29 Norte 42 Norte 0 -- -- 77
2020-08-29 08:00:00 20.4 22 Norte 41 Norte 0 -- -- 80
2020-08-29 07:00:00 20.3 19 Norte 37 Norte 0 -- -- 84
2020-08-29 06:00:00 19.9 25 Norte 40 Norte 0 -- -- 82
2020-08-29 05:00:00 19.8 24 Norte 44 Norte 0 -- -- 85
2020-08-29 04:00:00 19.9 28 Norte 49 Norte 0 -- -- 85
2020-08-29 03:00:00 19.9 24 Norte 37 Norte 0 -- -- 86
2020-08-29 02:00:00 19.8 17 Norte 32 Norte 0 -- -- 87
2020-08-29 01:00:00 20.2 23 Norte 35 Norte 0 -- -- 88
2020-08-29 00:00:00 20.5 21 Norte 39 Norte 0 -- -- 87
2020-08-28 23:00:00 20.7 26 Norte 45 Norte 0 -- -- 88
2020-08-28 22:00:00 21 30 Norte 58 Noroeste 0 -- -- 87
2020-08-28 21:00:00 21.6 42 Noroeste 55 Noroeste 0 -- -- 85
2020-08-28 20:00:00 23.5 37 Norte 50 Norte 0 -- -- 77
2020-08-28 19:00:00 26 28 Norte 43 Norte 0 -- -- 67
2020-08-28 18:00:00 28.6 27 Norte 42 Norte 0 -- -- 59
2020-08-28 17:00:00 30.4 24 Nordeste 34 Nordeste 0 -- -- 46
2020-08-28 16:00:00 31.1 24 Nordeste 31 Nordeste 0 -- -- 41
2020-08-28 15:00:00 31.4 24 Noroeste 33 Noroeste 0 -- -- 51
2020-08-28 14:00:00 32.4 14 Norte 26 Norte 0 -- -- 42
2020-08-28 13:00:00 31.9 10 Norte 36 Este 0 -- -- 41
2020-08-28 12:00:00 31.7 18 Nordeste 31 Nordeste 0 -- -- 27
2020-08-28 11:00:00 30.9 20 Este 30 Este 0 -- -- 30
2020-08-28 10:00:00 30.6 17 Sudeste 31 Sudeste 0 -- -- 29
2020-08-28 09:00:00 29.2 4 Norte 20 Norte 0 -- -- 28
2020-08-28 08:00:00 30 6 Sudeste 15 Sudoeste 0 -- -- 20
2020-08-28 07:00:00 29.7 8 Sudoeste 20 Sudoeste 0 -- -- 19
2020-08-28 06:00:00 29.1 3 Sudoeste 18 Nordeste 0 -- -- 21
2020-08-28 05:00:00 29.2 6 Noroeste 33 Norte 0 -- -- 22
2020-08-28 04:00:00 29.5 10 Nordeste 24 Norte 0 -- -- 22
2020-08-28 03:00:00 30.3 10 Sur 23 Sudoeste 0 -- -- 20
2020-08-28 02:00:00 29.9 4 Sudoeste 19 Oeste 0 -- -- 22
2020-08-28 01:00:00 30.5 8 Oeste 16 Sudoeste 0 -- -- 23
2020-08-28 00:00:00 31 6 Sur 19 Sudoeste 0 -- -- 22
2020-08-27 23:00:00 30.9 7 Sur 19 Sudoeste 0 -- -- 25
2020-08-27 22:00:00 31.2 6 Sudeste 24 Norte 0 -- -- 31
2020-08-27 21:00:00 32.3 12 Nordeste 23 Nordeste 0 -- -- 31
2020-08-27 20:00:00 34.6 10 Norte 26 Norte 0 -- -- 25
2020-08-27 19:00:00 36.5 15 Nordeste 33 Nordeste 0 -- -- 23
2020-08-27 18:00:00 36.5 25 Nordeste 39 Este 0 -- -- 21
2020-08-27 17:00:00 36.9 21 Este 33 Nordeste 0 -- -- 22
2020-08-27 16:00:00 36.7 18 Nordeste 34 Norte 0 -- -- 22
2020-08-27 15:00:00 38.1 24 Nordeste 34 Este 0 -- -- 26
2020-08-27 14:00:00 37.8 14 Norte 26 Norte 0 -- -- 35
2020-08-27 13:00:00 38 14 Norte 26 Norte 0 -- -- 31
2020-08-27 12:00:00 36.5 19 Norte 29 Noroeste 0 -- -- 35
2020-08-27 11:00:00 37.2 24 Noroeste 34 Noroeste 0 -- -- 24
2020-08-27 10:00:00 34.9 23 Norte 32 Noroeste 0 -- -- 27
2020-08-27 09:00:00 31 19 Norte 27 Norte 0 -- -- 37
2020-08-27 08:00:00 26.7 24 Norte 31 Norte 0 -- -- 61
2020-08-27 07:00:00 28.5 11 Norte 16 Noroeste 0 -- -- 39
2020-08-27 06:00:00 30.8 11 Norte 15 Noroeste 0 -- -- 27
2020-08-27 05:00:00 31.8 4 Noroeste 11 Norte 0 -- -- 25
2020-08-27 04:00:00 31.9 5 Norte 15 Norte 0 -- -- 29
2020-08-27 03:00:00 29.3 5 Noroeste 8 Oeste 0 -- -- 48
2020-08-27 02:00:00 27.2 4 Sur 6 Sur 0 -- -- 62
2020-08-27 01:00:00 27.4 4 Sur 24 Noroeste 0 -- -- 64
2020-08-27 00:00:00 33.8 17 Noroeste 28 Noroeste 0 -- -- 33
2020-08-26 23:00:00 32.8 18 Norte 30 Norte 0 -- -- 35
2020-08-26 22:00:00 32.5 21 Norte 31 Norte 0 -- -- 36
2020-08-26 21:00:00 33.1 22 Norte 28 Norte 0 -- -- 39
2020-08-26 20:00:00 34.8 18 Norte 24 Noroeste 0 -- -- 35
2020-08-26 19:00:00 36.6 17 Norte 25 Norte 0 -- -- 32
2020-08-26 18:00:00 38.9 16 Norte 23 Norte 0 -- -- 32
2020-08-26 17:00:00 40.2 14 Norte 20 Norte 0 -- -- 29
2020-08-26 16:00:00 41.1 11 Sudeste 20 Sudeste 0 -- -- 24
2020-08-26 15:00:00 38.3 9 Este 18 Este 0 -- -- 34
2020-08-26 14:00:00 36.5 11 Este 23 Sudeste 0 -- -- 38
2020-08-26 13:00:00 38.1 16 Sudeste 24 Sudeste 0 -- -- 32
2020-08-26 12:00:00 35 8 Sudeste 13 Sudeste 0 -- -- 34
2020-08-26 11:00:00 32.1 6 Este 10 Este 0 -- -- 39
2020-08-26 10:00:00 29.9 5 Sur 11 Sudeste 0 -- -- 44
2020-08-26 09:00:00 29.7 12 Sudeste 26 Sudeste 0 -- -- 40
2020-08-26 08:00:00 29.9 2 Noroeste 10 Sudeste 0 -- -- 37
2020-08-26 07:00:00 30.5 5 Oeste 18 Noroeste 0 -- -- 33
2020-08-26 06:00:00 29.2 0 Calma 18 Sudeste 0 -- -- 40
2020-08-26 05:00:00 28.3 8 Sur 14 Sur 0 -- -- 42
2020-08-26 04:00:00 28.7 3 Sudoeste 10 Noroeste 0 -- -- 42
2020-08-26 03:00:00 30.4 9 Noroeste 20 Oeste 0 -- -- 35
2020-08-26 02:00:00 28.1 13 Norte 19 Norte 0 -- -- 43
2020-08-26 01:00:00 27.8 8 Oeste 31 Este 0 -- -- 47
2020-08-26 00:00:00 26.7 5 Oeste 22 Noroeste 0 -- -- 55